createdAt,value
2019-02-08T00:02:22.871Z,99096.91
2019-02-08T00:07:28.431Z,99093.69
2019-02-08T00:12:33.731Z,99069.33
2019-02-08T00:17:38.881Z,99064.07
2019-02-08T00:22:44.134Z,99042.56
2019-02-08T00:27:49.422Z,99038.58
2019-02-08T00:32:55.578Z,99023.28
2019-02-08T00:38:00.693Z,99034.84
2019-02-08T00:43:06.290Z,99033.67
2019-02-08T00:48:11.490Z,99023.02
2019-02-08T00:53:16.927Z,99007.89
2019-02-08T00:58:22.118Z,98989.50
2019-02-08T01:03:27.430Z,98985.44
2019-02-08T01:08:32.597Z,98979.73
2019-02-08T01:13:38.037Z,98969.00
2019-02-08T01:18:43.284Z,98958.92
2019-02-08T01:23:48.596Z,98936.28
2019-02-08T01:28:53.912Z,98928.72
2019-02-08T01:33:59.254Z,98917.30
2019-02-08T01:39:07.083Z,98901.45
2019-02-08T01:44:12.608Z,98880.06
2019-02-08T01:49:17.841Z,98878.48
2019-02-08T01:54:23.146Z,98862.69
2019-02-08T01:59:28.363Z,98855.15
2019-02-08T02:04:33.692Z,98859.53
2019-02-08T02:09:38.882Z,98862.19
2019-02-08T02:14:44.231Z,98830.78
2019-02-08T02:19:49.426Z,98828.05
2019-02-08T02:24:54.670Z,98817.85
2019-02-08T02:29:59.975Z,98809.78
2019-02-08T02:35:05.741Z,98804.08
2019-02-08T02:40:12.423Z,98792.85
2019-02-08T02:45:21.146Z,98779.00
2019-02-08T02:50:26.733Z,98775.54
2019-02-08T02:55:32.262Z,98756.89
2019-02-08T03:00:41.434Z,98756.81
2019-02-08T03:05:46.841Z,98739.42
2019-02-08T03:10:52.280Z,98721.39
2019-02-08T03:15:57.652Z,98723.48
2019-02-08T03:21:02.848Z,98727.81
2019-02-08T03:26:08.170Z,98706.20
2019-02-08T03:31:13.479Z,98712.55
2019-02-08T03:36:18.744Z,98695.16
2019-02-08T03:41:24.033Z,98674.78
2019-02-08T03:46:29.266Z,98652.71
2019-02-08T03:51:34.451Z,98666.97
2019-02-08T03:56:39.716Z,98642.70
2019-02-08T04:01:45.037Z,98632.09
2019-02-08T04:06:50.192Z,98618.81
2019-02-08T04:11:55.663Z,98598.95
2019-02-08T04:17:00.876Z,98584.82
2019-02-08T04:22:06.256Z,98572.97
2019-02-08T04:27:11.496Z,98565.11
2019-02-08T04:32:16.866Z,98539.50
2019-02-08T04:37:22.128Z,98540.30
2019-02-08T04:42:27.362Z,98521.55
2019-02-08T04:47:32.548Z,98514.80
2019-02-08T04:52:37.811Z,98499.94
2019-02-08T04:57:42.951Z,98492.23
2019-02-08T05:02:48.331Z,98482.91
2019-02-08T05:07:53.592Z,98472.56
2019-02-08T05:12:59.278Z,98454.66
2019-02-08T05:18:04.841Z,98455.32
2019-02-08T05:23:10.096Z,98445.12
2019-02-08T05:28:15.378Z,98433.58
2019-02-08T05:33:20.632Z,98407.79
2019-02-08T05:38:25.817Z,98412.58
2019-02-08T05:43:31.138Z,98402.75
2019-02-08T05:48:36.450Z,98383.41
2019-02-08T05:53:41.938Z,98389.07
2019-02-08T05:58:47.085Z,98381.06
2019-02-08T06:03:52.277Z,98380.77
2019-02-08T06:08:57.651Z,98378.02
2019-02-08T06:14:02.956Z,98346.02
2019-02-08T06:19:08.281Z,98343.27
2019-02-08T06:24:13.619Z,98323.45
2019-02-08T06:29:18.917Z,98306.12
2019-02-08T06:34:24.340Z,98289.53
2019-02-08T06:39:29.556Z,98251.15
2019-02-08T06:44:34.806Z,98270.69
2019-02-08T06:49:39.961Z,98263.92
2019-02-08T06:54:45.365Z,98245.34
2019-02-08T06:59:59.016Z,98223.44
2019-02-08T07:05:12.934Z,98234.02
2019-02-08T07:10:33.582Z,98216.97
2019-02-08T07:15:47.036Z,98223.08
2019-02-08T07:21:00.996Z,98232.69
2019-02-08T07:26:13.753Z,98219.14
2019-02-08T07:31:27.051Z,98198.86
2019-02-08T07:36:43.996Z,98197.72
2019-02-08T07:41:58.456Z,98179.78
2019-02-08T07:47:10.375Z,98160.37
2019-02-08T07:52:25.296Z,98164.14
2019-02-08T07:57:38.962Z,98146.70
2019-02-08T08:03:00.906Z,98148.92
2019-02-08T08:08:17.090Z,98113.09
2019-02-08T08:13:30.160Z,98156.18
2019-02-08T08:18:47.232Z,98118.61
2019-02-08T08:23:58.787Z,98115.75
2019-02-08T08:29:11.493Z,98106.33
2019-02-08T08:34:27.136Z,98100.66
2019-02-08T08:39:56.408Z,98063.12
2019-02-08T08:45:24.408Z,98089.23
2019-02-08T08:50:57.160Z,98079.13
2019-02-08T08:56:21.214Z,98070.75
2019-02-08T09:01:45.283Z,98061.61
2019-02-08T09:07:05.174Z,98048.64
2019-02-08T09:12:32.687Z,98052.64
2019-02-08T09:18:05.354Z,98025.40
2019-02-08T09:35:22.137Z,98013.56
2019-02-08T09:40:47.567Z,98012.70
2019-02-08T09:46:13.623Z,98021.20
2019-02-08T09:51:36.291Z,97992.48
2019-02-08T09:57:01.681Z,97995.42
2019-02-08T10:02:42.130Z,98015.73
2019-02-08T10:08:13.906Z,98010.13
2019-02-08T10:13:41.091Z,97995.85
2019-02-08T10:19:10.152Z,97989.92
2019-02-08T10:24:31.217Z,97973.71
2019-02-08T10:29:53.792Z,97969.97
2019-02-08T10:35:16.795Z,97984.48
2019-02-08T10:40:39.217Z,97967.57
2019-02-08T10:46:02.268Z,97954.80
2019-02-08T10:51:30.842Z,97955.13
2019-02-08T10:56:53.497Z,97970.54
2019-02-08T11:02:21.397Z,97945.89
2019-02-08T11:07:44.128Z,97950.16
2019-02-08T11:13:12.122Z,97956.13
2019-02-08T11:18:36.398Z,97960.39
2019-02-08T11:23:41.638Z,97962.72
2019-02-08T11:28:46.869Z,97951.55
2019-02-08T11:33:52.174Z,97958.39
2019-02-08T11:38:57.736Z,97944.72
2019-02-08T11:44:02.978Z,97940.68
2019-02-08T11:49:08.493Z,97920.61
2019-02-08T11:54:13.987Z,97926.50
2019-02-08T11:59:19.171Z,97924.44
2019-02-08T12:04:24.352Z,97948.06
2019-02-08T12:09:29.707Z,97949.34
2019-02-08T12:14:34.971Z,97939.30
2019-02-08T12:19:40.223Z,97924.97
2019-02-08T12:24:45.453Z,97937.33
2019-02-08T12:29:50.814Z,97914.41
2019-02-08T12:34:56.097Z,97919.67
2019-02-08T12:40:01.480Z,97927.20
2019-02-08T12:45:07.817Z,97905.24
2019-02-08T12:50:13.690Z,97898.16
2019-02-08T12:55:19.017Z,97882.23
2019-02-08T13:00:24.472Z,97903.06
2019-02-08T13:05:29.819Z,97891.13
2019-02-08T13:10:35.212Z,97887.47
2019-02-08T13:15:40.457Z,97886.06
2019-02-08T13:20:45.676Z,97885.84
2019-02-08T13:25:50.817Z,97877.70
2019-02-08T13:30:56.073Z,97868.99
2019-02-08T13:36:01.245Z,97871.04
2019-02-08T13:41:06.718Z,97879.59
2019-02-08T13:46:11.931Z,97885.64
2019-02-08T13:51:17.128Z,97881.58
2019-02-08T13:56:22.302Z,97878.05
2019-02-08T14:01:28.661Z,97873.72
2019-02-08T14:06:36.877Z,97883.22
2019-02-08T14:11:42.128Z,97890.92
2019-02-08T14:16:47.498Z,97888.94
2019-02-08T14:21:52.707Z,97882.06
2019-02-08T14:26:58.134Z,97891.14
2019-02-08T14:32:03.547Z,97890.03
2019-02-08T14:37:08.977Z,97879.94
2019-02-08T14:42:14.302Z,97901.06
2019-02-08T14:47:19.674Z,97909.97
2019-02-08T14:52:24.956Z,97911.28
2019-02-08T14:57:30.133Z,97890.85
2019-02-08T15:02:35.408Z,97893.69
2019-02-08T15:07:40.806Z,97874.98
2019-02-08T15:12:46.313Z,97899.72
2019-02-08T15:17:51.573Z,97888.05
2019-02-08T15:22:56.932Z,97914.14
2019-02-08T15:28:02.292Z,97900.56
2019-02-08T15:33:07.917Z,97910.78
2019-02-08T15:38:13.201Z,97904.47
2019-02-08T15:43:20.122Z,97916.25
2019-02-08T15:48:25.427Z,97903.17
2019-02-08T15:53:30.623Z,97914.22
2019-02-08T15:58:35.887Z,97905.51
2019-02-08T16:03:41.343Z,97911.20
2019-02-08T16:08:46.542Z,97912.91
2019-02-08T16:13:51.837Z,97910.92
2019-02-08T16:18:59.839Z,97903.81
2019-02-08T16:24:05.666Z,97919.80
2019-02-08T16:29:11.097Z,97912.30
2019-02-08T16:34:19.145Z,97928.64
2019-02-08T16:39:24.410Z,97918.55
2019-02-08T16:44:31.112Z,97914.23
2019-02-08T16:49:37.634Z,97917.98
2019-02-08T16:54:42.862Z,97914.56
2019-02-08T16:59:48.048Z,97918.30
2019-02-08T17:04:53.227Z,97919.72
2019-02-08T17:09:58.411Z,97919.22
2019-02-08T17:15:03.643Z,97915.31
2019-02-08T17:20:11.821Z,97925.81
2019-02-08T17:25:17.207Z,97936.70
2019-02-08T17:30:22.830Z,97932.60
2019-02-08T17:35:28.501Z,97925.74
2019-02-08T17:40:34.742Z,97943.30
2019-02-08T17:45:40.108Z,97929.44
2019-02-08T17:50:45.632Z,97948.55
2019-02-08T17:55:50.908Z,97942.73
2019-02-08T18:00:58.415Z,97950.91
2019-02-08T18:06:03.828Z,97964.94
2019-02-08T18:11:09.041Z,97952.75
2019-02-08T18:16:14.278Z,97960.06
2019-02-08T18:21:19.512Z,97957.45
2019-02-08T18:26:24.787Z,97969.16
2019-02-08T18:31:30.182Z,97985.25
2019-02-08T18:36:35.466Z,97984.25
2019-02-08T18:41:40.626Z,97986.97
2019-02-08T18:46:45.822Z,97997.61
2019-02-08T18:51:51.092Z,97997.61
2019-02-08T18:56:56.322Z,98005.80
2019-02-08T19:02:01.553Z,98014.84
2019-02-08T19:07:06.734Z,98023.91
2019-02-08T19:12:12.002Z,98026.74
2019-02-08T19:17:17.261Z,98021.48
2019-02-08T19:22:22.708Z,98036.76
2019-02-08T19:27:28.033Z,98044.78
2019-02-08T19:32:33.348Z,98051.85
2019-02-08T19:37:38.659Z,98063.10
2019-02-08T19:42:45.093Z,98099.23
2019-02-08T19:47:50.269Z,98090.87
2019-02-08T19:52:55.692Z,98077.63
2019-02-08T19:58:00.975Z,98086.13
2019-02-08T20:03:06.800Z,98089.69
2019-02-08T20:08:13.731Z,98103.52
2019-02-08T20:13:18.935Z,98113.06
2019-02-08T20:18:24.343Z,98110.65
2019-02-08T20:23:29.699Z,98107.20
2019-02-08T20:28:41.924Z,98116.25
2019-02-08T20:33:41.877Z,98110.79
2019-02-08T20:38:47.267Z,98127.41
2019-02-08T20:43:52.482Z,98136.23
2019-02-08T20:48:57.647Z,98156.20
2019-02-08T20:54:02.937Z,98155.19
2019-02-08T20:59:08.103Z,98177.19
2019-02-08T21:04:13.427Z,98163.05
2019-02-08T21:09:18.557Z,98187.96
2019-02-08T21:14:23.986Z,98196.30
2019-02-08T21:19:29.328Z,98197.15
2019-02-08T21:24:34.547Z,98217.49
2019-02-08T21:29:39.798Z,98216.88
2019-02-08T21:34:45.175Z,98216.67
2019-02-08T21:39:50.422Z,98226.50
2019-02-08T21:44:55.777Z,98241.80
2019-02-08T21:50:00.894Z,98242.74
2019-02-08T21:55:08.243Z,98251.08
2019-02-08T22:00:20.407Z,98268.28
2019-02-08T22:05:28.194Z,98285.55
2019-02-08T22:10:33.571Z,98289.77
2019-02-08T22:15:39.238Z,98309.25
2019-02-08T22:20:44.529Z,98318.20
2019-02-08T22:25:49.647Z,98325.45
2019-02-08T22:30:54.863Z,98331.53
2019-02-08T22:36:00.131Z,98337.89
2019-02-08T22:41:05.537Z,98345.70
2019-02-08T22:46:10.777Z,98367.22
2019-02-08T22:51:16.071Z,98379.58
2019-02-08T22:56:21.277Z,98382.27
2019-02-08T23:01:30.714Z,98394.98
2019-02-08T23:06:44.261Z,98401.31
2019-02-08T23:11:43.197Z,98393.40
2019-02-08T23:16:51.410Z,98417.20
2019-02-08T23:21:56.696Z,98416.36
2019-02-08T23:27:02.202Z,98415.23
2019-02-08T23:32:07.402Z,98429.98
2019-02-08T23:37:12.623Z,98429.44
2019-02-08T23:42:17.784Z,98447.83
2019-02-08T23:47:23.059Z,98450.69
2019-02-08T23:52:28.402Z,98452.55
2019-02-08T23:57:33.767Z,98475.00
